Time;durP1;ratioP1;P1;durP2;ratioP2;P2;SDS_P1;SDS_P2;PMS_P1;PMS_P2;Temp;Humidity;BMP_temperature;BMP_pressure;BME280_temperature;BME280_humidity;BME280_pressure;Samples;Min_cycle;Max_cycle;Signal;HPM_P1;HPM_P2
2021/04/07 00:02:23;;;;;;;4.77;3.13;;;;;;;-0.20;98.62;151320.91;5075063;28;20441;-76
2021/04/07 00:05:00;;;;;;;6.50;3.73;;;;;;;-0.21;98.18;151317.03;5075003;28;20445;-76
2021/04/07 00:07:35;;;;;;;4.67;3.40;;;;;;;-0.21;98.88;151318.34;5092569;28;20803;-76
2021/04/07 00:10:13;;;;;;;3.65;3.33;;;;;;;-0.26;100.00;151305.50;5075710;28;20436;-75
2021/04/07 00:12:49;;;;;;;4.53;3.80;;;;;;;-0.24;99.76;151310.63;5075609;28;20228;-76
2021/04/07 00:15:26;;;;;;;4.63;3.60;;;;;;;-0.20;100.00;151320.91;5093450;28;21099;-76
2021/04/07 00:18:04;;;;;;;3.73;3.20;;;;;;;-0.19;99.73;151323.50;5074146;28;20454;-75
2021/04/07 00:20:39;;;;;;;6.60;3.40;;;;;;;-0.16;100.00;151329.91;5072718;28;20438;-76
2021/04/07 00:23:14;;;;;;;5.07;3.90;;;;;;;-0.19;98.69;151322.22;5092749;28;20483;-76
2021/04/07 00:25:50;;;;;;;4.07;3.27;;;;;;;-0.16;99.59;151329.91;5075041;28;20461;-76
2021/04/07 00:28:25;;;;;;;4.57;3.43;;;;;;;-0.17;99.00;151327.34;5071756;28;20445;-75
2021/04/07 00:31:01;;;;;;;3.90;2.70;;;;;;;-0.19;99.45;151323.50;5059625;28;20544;-76
2021/04/07 00:33:36;;;;;;;3.57;2.93;;;;;;;-0.17;100.00;151328.63;5059435;28;20839;-76
2021/04/07 00:36:11;;;;;;;4.00;2.77;;;;;;;-0.28;98.45;151300.41;5074443;28;20449;-75
2021/04/07 00:38:46;;;;;;;4.20;3.20;;;;;;;-0.15;100.00;151332.47;5075319;28;20442;-75
2021/04/07 00:41:22;;;;;;;4.57;3.20;;;;;;;-0.20;98.42;151320.91;5093876;28;20990;-76
2021/04/07 00:44:03;;;;;;;3.60;2.87;;;;;;;-0.23;99.41;151313.22;5075595;28;20864;-76
2021/04/07 00:46:38;;;;;;;4.30;3.10;;;;;;;-0.22;99.49;151315.81;5074765;28;20473;-75
2021/04/07 00:49:13;;;;;;;3.10;2.80;;;;;;;-0.25;100.00;151306.81;5089764;28;20449;-76
2021/04/07 00:51:49;;;;;;;3.43;2.90;;;;;;;-0.23;100.00;151313.22;5055354;28;20450;-76
2021/04/07 00:54:24;;;;;;;4.60;2.80;;;;;;;-0.22;100.00;151315.81;5069299;28;20935;-76
2021/04/07 00:57:00;;;;;;;3.67;3.00;;;;;;;-0.22;100.00;151314.50;5092298;28;20472;-76
2021/04/07 00:59:36;;;;;;;5.63;2.80;;;;;;;-0.20;100.00;151320.91;5091318;28;20465;-75
2021/04/07 01:02:11;;;;;;;4.50;3.93;;;;;;;-0.24;100.00;151309.38;5093674;28;20869;-74
2021/04/07 01:04:46;;;;;;;4.70;3.57;;;;;;;-0.22;100.00;151314.50;5074245;28;20437;-77
2021/04/07 01:07:25;;;;;;;4.80;3.50;;;;;;;-0.27;98.94;151302.97;5058445;28;20449;-77
2021/04/07 01:10:00;;;;;;;3.93;3.43;;;;;;;-0.28;99.49;151299.09;5075173;28;20492;-77
2021/04/07 01:12:37;;;;;;;4.27;3.20;;;;;;;-0.31;98.47;151292.69;5059834;28;20773;-77
2021/04/07 01:15:13;;;;;;;4.63;3.20;;;;;;;-0.31;98.79;151292.69;5046743;28;20445;-77
2021/04/07 01:17:48;;;;;;;3.97;3.57;;;;;;;-0.32;99.17;151288.84;5059783;28;20448;-77
2021/04/07 01:20:24;;;;;;;5.23;3.70;;;;;;;-0.33;99.42;151286.28;5039769;28;20430;-77
2021/04/07 01:23:01;;;;;;;5.53;3.57;;;;;;;-0.33;99.23;151287.56;5049402;28;20462;-77
2021/04/07 01:25:38;;;;;;;7.63;3.83;;;;;;;-0.39;100.00;151270.88;5093680;28;20562;-77
2021/04/07 01:28:14;;;;;;;4.67;3.13;;;;;;;-0.41;99.60;151265.75;5068194;28;20624;-77
2021/04/07 01:30:49;;;;;;;6.80;4.10;;;;;;;-0.44;99.22;151259.34;5071786;28;20438;-77
2021/04/07 01:33:25;;;;;;;4.67;3.50;;;;;;;-0.46;99.73;151254.22;5054912;28;20453;-77
2021/04/07 01:36:00;;;;;;;5.37;3.23;;;;;;;-0.49;98.69;151246.53;5080540;28;20445;-78
2021/04/07 01:38:35;;;;;;;4.40;3.57;;;;;;;-0.51;97.48;151240.09;5092744;28;20433;-77
2021/04/07 01:41:12;;;;;;;4.90;4.20;;;;;;;-0.57;97.98;151226.00;5092405;28;20445;-77
2021/04/07 01:43:48;;;;;;;3.87;3.13;;;;;;;-0.56;99.47;151227.28;5074607;28;20432;-76
2021/04/07 01:46:23;;;;;;;6.47;3.97;;;;;;;-0.64;98.18;151208.06;5073981;28;20955;-77
2021/04/07 01:48:59;;;;;;;4.90;3.57;;;;;;;-0.67;99.78;151201.66;5074581;28;20445;-77
2021/04/07 01:51:35;;;;;;;4.27;3.70;;;;;;;-0.65;98.27;151206.75;5058715;28;20468;-77
2021/04/07 01:54:12;;;;;;;5.23;3.70;;;;;;;-0.67;99.03;151200.34;5074832;28;20437;-77
2021/04/07 01:56:49;;;;;;;4.07;3.63;;;;;;;-0.69;97.81;151195.25;5073091;28;20430;-77
2021/04/07 01:59:25;;;;;;;4.53;3.33;;;;;;;-0.71;99.45;151191.34;5074668;28;20931;-77
2021/04/07 02:02:01;;;;;;;5.47;3.40;;;;;;;-0.68;99.26;151199.06;5092102;28;20437;-76
2021/04/07 02:04:36;;;;;;;6.10;4.10;;;;;;;-0.70;97.94;151193.94;5058359;28;20943;-75
2021/04/07 02:07:13;;;;;;;6.37;4.17;;;;;;;-0.72;97.44;151188.81;5066684;28;20472;-76
2021/04/07 02:09:48;;;;;;;5.13;3.53;;;;;;;-0.73;98.43;151184.94;5074299;28;20449;-74
2021/04/07 02:12:24;;;;;;;6.37;4.00;;;;;;;-0.80;98.53;151168.31;5092160;28;20461;-76
2021/04/07 02:14:59;;;;;;;5.47;4.50;;;;;;;-0.78;96.71;151173.44;5074489;28;20437;-77
2021/04/07 02:17:34;;;;;;;6.20;4.40;;;;;;;-0.80;96.84;151167.00;5060414;28;20448;-76
2021/04/07 02:20:10;;;;;;;6.03;4.33;;;;;;;-0.84;96.56;151158.03;5077606;28;20415;-76
2021/04/07 02:22:46;;;;;;;7.67;4.70;;;;;;;-0.80;96.90;151168.31;5073800;28;20486;-77
2021/04/07 02:25:21;;;;;;;5.80;4.30;;;;;;;-0.82;96.82;151161.91;5085463;28;20556;-77
2021/04/07 02:27:57;;;;;;;4.80;4.27;;;;;;;-0.81;98.27;151165.72;5096178;28;20413;-76
2021/04/07 02:30:32;;;;;;;5.13;3.70;;;;;;;-0.84;95.45;151156.72;5094297;28;20449;-75
2021/04/07 02:33:07;;;;;;;4.87;4.27;;;;;;;-0.83;97.99;151160.59;5077386;28;20535;-76
2021/04/07 02:35:42;;;;;;;5.87;4.53;;;;;;;-0.82;97.64;151161.91;5075420;28;20446;-77
2021/04/07 02:38:18;;;;;;;6.00;4.23;;;;;;;-0.81;98.37;151164.44;5098107;28;20534;-77
2021/04/07 02:40:53;;;;;;;5.17;3.90;;;;;;;-0.86;98.12;151151.63;5086544;28;20532;-77
2021/04/07 02:43:29;;;;;;;6.50;4.10;;;;;;;-0.89;95.30;151143.91;5071327;28;20445;-77
2021/04/07 02:46:05;;;;;;;4.80;3.80;;;;;;;-0.92;94.41;151137.50;5058663;28;20454;-76
2021/04/07 02:48:40;;;;;;;4.50;3.87;;;;;;;-0.92;96.59;151136.22;5090289;28;20454;-77
2021/04/07 02:51:15;;;;;;;7.90;4.40;;;;;;;-0.92;98.31;151136.22;5061656;28;20524;-76
2021/04/07 02:53:50;;;;;;;7.27;4.23;;;;;;;-1.00;95.96;151115.69;5095540;28;20827;-76
2021/04/07 02:56:25;;;;;;;7.23;4.60;;;;;;;-0.92;98.09;151137.50;5073713;28;20961;-77
2021/04/07 02:59:01;;;;;;;6.60;3.87;;;;;;;-0.88;97.73;151146.50;5072454;28;20485;-77
2021/04/07 03:01:36;;;;;;;6.77;4.50;;;;;;;-0.88;96.56;151146.50;5061743;28;20431;-76
2021/04/07 03:04:13;;;;;;;7.73;5.70;;;;;;;-0.94;97.67;151132.38;5078714;28;20438;-76
2021/04/07 03:06:48;;;;;;;7.17;5.30;;;;;;;-0.91;96.98;151138.78;5058192;28;20459;-77
2021/04/07 03:09:23;;;;;;;6.00;4.67;;;;;;;-0.88;98.11;151146.50;5057146;28;20948;-77
2021/04/07 03:11:58;;;;;;;6.00;4.43;;;;;;;-0.89;95.91;151143.91;5058067;28;20449;-77
2021/04/07 03:14:34;;;;;;;7.77;5.27;;;;;;;-0.86;97.12;151151.63;5075299;28;20754;-77
2021/04/07 03:17:09;;;;;;;6.57;4.43;;;;;;;-0.79;97.40;151169.56;5072826;28;20836;-76
2021/04/07 03:19:45;;;;;;;4.87;4.40;;;;;;;-0.80;97.29;151167.00;5073549;28;20450;-77
2021/04/07 03:22:20;;;;;;;7.00;4.90;;;;;;;-0.82;96.52;151161.91;5073486;28;20944;-77
2021/04/07 03:24:55;;;;;;;7.27;4.47;;;;;;;-0.80;97.37;151167.00;5073281;28;20450;-77
2021/04/07 03:27:31;;;;;;;6.60;4.60;;;;;;;-0.76;97.70;151177.25;5074620;28;20465;-77
2021/04/07 03:30:08;;;;;;;6.07;4.38;;;;;;;-0.71;96.91;151190.06;5070834;28;20454;-76
2021/04/07 03:32:43;;;;;;;6.37;4.33;;;;;;;-0.68;97.83;151197.78;5070013;28;20201;-77
2021/04/07 03:35:18;;;;;;;5.53;3.90;;;;;;;-0.66;97.19;151204.19;5074797;28;20954;-76
2021/04/07 03:37:53;;;;;;;5.60;5.00;;;;;;;-0.69;94.33;151195.25;5066815;28;20470;-77
2021/04/07 03:40:28;;;;;;;5.73;4.00;;;;;;;-0.68;95.37;151199.06;5068970;28;20478;-77
2021/04/07 03:43:05;;;;;;;6.03;3.77;;;;;;;-0.71;95.95;151191.34;5068646;28;21102;-77
2021/04/07 03:45:43;;;;;;;5.37;3.60;;;;;;;-0.66;95.18;151204.19;5065221;28;20464;-77
2021/04/07 03:48:19;;;;;;;5.90;3.70;;;;;;;-0.66;96.16;151204.19;5046315;28;20541;-77
2021/04/07 03:50:55;;;;;;;3.90;2.90;;;;;;;-0.68;94.14;151197.78;5055154;28;20520;-76
2021/04/07 03:53:31;;;;;;;3.50;3.20;;;;;;;-0.64;96.07;151208.06;5053929;28;20530;-76
2021/04/07 03:56:07;;;;;;;4.83;3.53;;;;;;;-0.66;94.29;151204.19;5069262;28;20816;-78
2021/04/07 03:58:42;;;;;;;5.10;3.33;;;;;;;-0.67;95.72;151201.66;5094841;28;21196;-77
2021/04/07 04:01:18;;;;;;;5.53;3.97;;;;;;;-0.68;94.49;151197.78;5065552;28;20441;-77
2021/04/07 04:03:53;;;;;;;10.73;4.37;;;;;;;-0.67;94.92;151200.34;5075798;28;20442;-77
2021/04/07 04:06:30;;;;;;;5.23;3.50;;;;;;;-0.62;95.70;151213.19;5058026;28;20488;-77
2021/04/07 04:09:06;;;;;;;4.97;3.10;;;;;;;-0.65;96.03;151205.47;5057154;28;20457;-77
2021/04/07 04:11:43;;;;;;;6.57;4.40;;;;;;;-0.65;94.90;151206.75;5089048;28;20430;-77
2021/04/07 04:14:19;;;;;;;5.23;3.27;;;;;;;-0.64;94.95;151209.28;5065429;28;20521;-77
2021/04/07 04:16:57;;;;;;;5.27;3.23;;;;;;;-0.64;95.41;151208.06;5085390;28;20444;-78
2021/04/07 04:19:32;;;;;;;4.10;3.00;;;;;;;-0.69;94.95;151195.25;5069275;28;20477;-77
2021/04/07 04:22:08;;;;;;;4.43;3.00;;;;;;;-0.63;93.54;151211.88;5090083;28;20520;-77
2021/04/07 04:24:43;;;;;;;5.93;3.60;;;;;;;-0.62;94.44;151213.19;5078382;28;20454;-77
2021/04/07 04:27:18;;;;;;;5.03;3.47;;;;;;;-0.64;94.82;151208.06;5055452;28;20466;-77
2021/04/07 04:29:53;;;;;;;4.17;3.23;;;;;;;-0.66;94.57;151204.19;5073806;28;20457;-77
2021/04/07 04:32:29;;;;;;;4.87;3.10;;;;;;;-0.65;96.18;151206.75;5093627;28;21080;-77
2021/04/07 04:35:05;;;;;;;4.20;2.97;;;;;;;-0.63;94.78;151210.59;5090974;28;20924;-76
2021/04/07 04:37:41;;;;;;;4.10;2.70;;;;;;;-0.62;94.03;151213.19;5092839;28;20743;-77
2021/04/07 04:40:17;;;;;;;4.60;2.53;;;;;;;-0.61;94.32;151215.75;5074704;28;20536;-77
2021/04/07 04:42:52;;;;;;;3.47;3.17;;;;;;;-0.63;92.17;151210.59;5070590;28;20540;-77
2021/04/07 04:45:27;;;;;;;3.67;2.40;;;;;;;-0.63;94.01;151210.59;5086505;28;20429;-77
2021/04/07 04:48:04;;;;;;;6.17;3.00;;;;;;;-0.66;94.93;151202.88;5087077;28;20556;-77
2021/04/07 04:50:40;;;;;;;3.83;2.53;;;;;;;-0.65;92.81;151205.47;5060421;28;21517;-77
2021/04/07 04:53:15;;;;;;;4.43;3.27;;;;;;;-0.66;94.74;151204.19;5084930;28;20953;-76
2021/04/07 04:55:50;;;;;;;5.20;2.60;;;;;;;-0.65;92.34;151206.75;5092282;28;20426;-77
2021/04/07 04:58:25;;;;;;;4.33;3.10;;;;;;;-0.65;93.35;151206.75;5072092;28;20449;-76
2021/04/07 05:01:00;;;;;;;2.60;2.40;;;;;;;-0.62;92.83;151213.19;5070039;28;20449;-77
2021/04/07 05:03:36;;;;;;;5.03;2.90;;;;;;;-0.64;92.05;151208.06;5059521;28;20480;-77
2021/04/07 05:06:12;;;;;;;5.80;3.00;;;;;;;-0.66;90.85;151204.19;5075062;28;20461;-76
2021/04/07 05:08:48;;;;;;;3.57;2.33;;;;;;;-0.64;92.03;151208.06;5074855;28;20448;-78
2021/04/07 05:11:23;;;;;;;4.77;2.80;;;;;;;-0.58;93.54;151223.41;5071371;28;20808;-77
2021/04/07 05:13:58;;;;;;;3.07;2.50;;;;;;;-0.54;93.08;151232.41;5066225;28;21317;-77
2021/04/07 05:16:34;;;;;;;3.30;2.67;;;;;;;-0.63;89.72;151210.59;5071833;28;20457;-77
2021/04/07 05:19:10;;;;;;;4.47;2.60;;;;;;;-0.63;89.98;151211.88;5074411;28;20441;-78
2021/04/07 05:21:45;;;;;;;2.80;2.13;;;;;;;-0.62;91.81;151214.47;5093224;28;20406;-77
2021/04/07 05:24:20;;;;;;;3.67;2.83;;;;;;;-0.58;92.79;151222.16;5081987;28;20449;-77
2021/04/07 05:26:55;;;;;;;3.30;2.70;;;;;;;-0.62;91.12;151214.47;5086050;28;20477;-77
2021/04/07 05:29:30;;;;;;;2.80;2.10;;;;;;;-0.61;92.00;151215.75;5072451;28;20533;-77
2021/04/07 05:32:06;;;;;;;3.50;2.60;;;;;;;-0.65;91.80;151205.47;5089518;28;20452;-76
2021/04/07 05:34:42;;;;;;;3.97;2.40;;;;;;;-0.54;92.60;151232.41;5082774;28;20441;-76
2021/04/07 05:37:17;;;;;;;4.63;2.10;;;;;;;-0.62;91.77;151213.19;5084885;28;20425;-76
2021/04/07 05:39:52;;;;;;;2.57;2.10;;;;;;;-0.63;90.69;151210.59;5080813;28;20442;-76
2021/04/07 05:42:27;;;;;;;3.40;2.30;;;;;;;-0.54;90.56;151232.41;5082253;28;20445;-76
2021/04/07 05:45:03;;;;;;;2.70;2.10;;;;;;;-0.52;91.19;151238.81;5062496;28;20445;-76
2021/04/07 05:47:38;;;;;;;4.37;2.40;;;;;;;-0.52;90.81;151238.81;5070250;28;20545;-76
2021/04/07 05:50:15;;;;;;;3.37;2.30;;;;;;;-0.51;89.30;151241.41;5073550;28;20532;-76
2021/04/07 05:52:50;;;;;;;3.87;2.60;;;;;;;-0.55;88.36;151231.13;5071586;28;20584;-76
2021/04/07 05:55:26;;;;;;;6.07;2.37;;;;;;;-0.51;87.93;151241.41;5052410;28;20426;-76
2021/04/07 05:58:03;;;;;;;3.23;2.37;;;;;;;-0.46;88.65;151254.22;5085827;28;20843;-76
2021/04/07 06:00:40;;;;;;;3.90;2.77;;;;;;;-0.49;85.94;151245.22;5085209;28;20531;-76
2021/04/07 06:03:16;;;;;;;2.60;2.17;;;;;;;-0.48;86.49;151247.81;5059128;28;20916;-76
2021/04/07 06:05:54;;;;;;;3.93;2.77;;;;;;;-0.52;85.80;151238.81;5073711;28;20458;-76
2021/04/07 06:08:35;;;;;;;5.77;2.73;;;;;;;-0.43;87.54;151261.94;5089451;28;20441;-75
2021/04/07 06:11:09;;;;;;;4.00;2.20;;;;;;;-0.41;87.83;151267.03;5076167;28;20966;-76
2021/04/07 06:13:45;;;;;;;4.20;2.67;;;;;;;-0.36;89.59;151279.88;5061581;28;20449;-77
2021/04/07 06:16:20;;;;;;;7.73;2.90;;;;;;;-0.28;86.57;151300.41;5091186;28;20440;-77
2021/04/07 06:18:55;;;;;;;4.53;2.60;;;;;;;-0.22;86.62;151315.81;5077259;28;20549;-77
2021/04/07 06:21:31;;;;;;;4.50;2.60;;;;;;;-0.17;84.94;151328.63;5093138;28;20445;-76
2021/04/07 06:24:07;;;;;;;3.90;2.40;;;;;;;-0.07;86.39;151352.97;5082017;28;20539;-76
2021/04/07 06:26:43;;;;;;;3.87;2.30;;;;;;;0.03;87.72;151377.41;5071916;28;20576;-76
2021/04/07 06:29:18;;;;;;;3.50;2.20;;;;;;;0.12;86.44;151400.47;5066915;28;20441;-77
2021/04/07 06:31:53;;;;;;;2.37;2.17;;;;;;;0.19;84.19;151419.72;5075059;28;20504;-76
2021/04/07 06:34:29;;;;;;;2.23;2.03;;;;;;;0.22;82.26;151426.13;5075095;28;20459;-77
2021/04/07 06:37:05;;;;;;;2.60;2.20;;;;;;;0.31;84.54;151449.25;5059798;28;20425;-77
2021/04/07 06:39:41;;;;;;;2.30;2.00;;;;;;;0.44;84.56;151482.63;5075443;28;20453;-77
2021/04/07 06:42:16;;;;;;;4.10;2.13;;;;;;;0.85;81.74;151586.63;5075477;28;20457;-76
2021/04/07 06:44:51;;;;;;;2.93;2.27;;;;;;;0.97;82.40;151618.72;5075189;28;20871;-76
2021/04/07 06:47:27;;;;;;;4.20;2.10;;;;;;;1.03;82.18;151634.09;5075870;28;20477;-75
2021/04/07 06:50:02;;;;;;;5.03;3.20;;;;;;;0.98;80.98;151620.03;5075298;28;20460;-75
2021/04/07 06:52:38;;;;;;;3.47;1.93;;;;;;;0.96;80.30;151616.16;5060046;28;20473;-76
2021/04/07 06:55:15;;;;;;;5.57;2.40;;;;;;;1.12;79.57;151657.25;5075667;28;20449;-76
2021/04/07 06:57:51;;;;;;;2.80;2.30;;;;;;;1.34;79.40;151711.19;5075408;28;20455;-76
2021/04/07 07:00:27;;;;;;;2.27;1.87;;;;;;;1.71;78.32;151806.28;5039161;28;20477;-76
2021/04/07 07:03:05;;;;;;;3.50;2.60;;;;;;;2.16;78.63;151920.69;5061216;28;20454;-76
2021/04/07 07:05:42;;;;;;;2.47;1.80;;;;;;;2.10;74.04;151906.53;5076664;28;20450;-76
2021/04/07 07:08:19;;;;;;;2.10;1.60;;;;;;;2.05;75.36;151892.41;5077650;28;20814;-76
2021/04/07 07:10:54;;;;;;;2.90;1.70;;;;;;;1.97;75.98;151873.13;5097513;28;20942;-76
2021/04/07 07:13:29;;;;;;;3.07;1.90;;;;;;;1.64;73.26;151788.31;5083637;28;20457;-76
2021/04/07 07:16:05;;;;;;;2.13;1.87;;;;;;;1.66;74.16;151794.75;5072900;28;20442;-77
2021/04/07 07:18:42;;;;;;;2.90;2.03;;;;;;;1.60;76.27;151779.31;5081438;28;20553;-77
2021/04/07 07:21:19;;;;;;;3.10;2.20;;;;;;;1.37;75.39;151718.91;5073344;28;20532;-76
2021/04/07 07:23:56;;;;;;;4.67;1.80;;;;;;;1.33;76.12;151709.91;5084746;28;20438;-77
2021/04/07 07:26:41;;;;;;;2.73;1.83;;;;;;;1.20;74.34;151677.81;5076638;28;20983;-77
2021/04/07 07:29:24;;;;;;;2.00;1.80;;;;;;;1.24;77.75;151688.06;5073638;28;20545;-76
2021/04/07 07:32:03;;;;;;;4.10;2.30;;;;;;;1.19;76.19;151673.97;5045284;28;20572;-76
2021/04/07 07:34:39;;;;;;;2.33;2.13;;;;;;;1.35;78.78;151715.03;5076186;28;20433;-85
2021/04/07 07:37:24;;;;;;;2.90;2.23;;;;;;;1.52;76.64;151757.44;5064944;28;20545;-77
2021/04/07 07:40:00;;;;;;;2.20;1.87;;;;;;;1.73;77.62;151812.72;5056780;28;20450;-78
2021/04/07 07:42:35;;;;;;;8.03;2.77;;;;;;;1.91;76.30;151856.44;5081263;28;20450;-78
2021/04/07 07:45:11;;;;;;;2.90;2.30;;;;;;;2.34;76.16;151968.25;5063642;28;20843;-78
2021/04/07 07:47:47;;;;;;;3.70;2.47;;;;;;;2.57;72.42;152024.88;5073467;28;20465;-79
2021/04/07 07:50:22;;;;;;;4.27;2.20;;;;;;;2.41;71.22;151986.25;5076261;28;20438;-78
2021/04/07 07:52:57;;;;;;;2.73;2.53;;;;;;;2.44;74.78;151992.69;5060377;28;20437;-78
2021/04/07 07:55:38;;;;;;;3.37;2.47;;;;;;;2.22;70.55;151937.44;5077962;28;20496;-78
2021/04/07 07:58:13;;;;;;;3.70;2.37;;;;;;;2.20;73.54;151932.25;5092105;28;20445;-78
2021/04/07 08:00:48;;;;;;;3.10;2.30;;;;;;;2.12;72.60;151911.69;5073006;28;20438;-78
2021/04/07 08:03:23;;;;;;;3.17;2.40;;;;;;;1.83;75.11;151837.13;5070831;28;20456;-78
2021/04/07 08:06:01;;;;;;;2.60;2.00;;;;;;;1.69;72.12;151802.47;5092611;28;20493;-78
2021/04/07 08:08:36;;;;;;;2.23;1.80;;;;;;;1.59;74.30;151776.72;5067114;28;20449;-78
2021/04/07 08:11:12;;;;;;;2.93;2.20;;;;;;;1.48;72.29;151747.19;5070917;28;20441;-78
2021/04/07 08:13:47;;;;;;;2.33;2.10;;;;;;;1.49;73.22;151749.72;5086025;28;20529;-77
2021/04/07 08:16:23;;;;;;;2.07;1.87;;;;;;;1.55;77.18;151766.47;5060318;28;20449;-77
2021/04/07 08:18:59;;;;;;;2.30;2.10;;;;;;;1.54;74.86;151763.88;5069978;28;20461;-78
2021/04/07 08:21:35;;;;;;;2.60;2.23;;;;;;;1.57;74.11;151770.28;5071625;28;20436;-77
2021/04/07 08:24:11;;;;;;;2.30;2.10;;;;;;;1.72;74.77;151808.88;5073972;28;20465;-77
2021/04/07 08:26:48;;;;;;;3.60;2.20;;;;;;;1.72;75.96;151810.13;5075859;28;20473;-77
2021/04/07 08:29:23;;;;;;;3.03;2.17;;;;;;;1.71;76.94;151807.59;5076827;28;20449;-77
2021/04/07 08:31:58;;;;;;;2.00;1.80;;;;;;;1.74;74.45;151814.00;5075010;28;20441;-77
2021/04/07 08:34:34;;;;;;;4.80;2.13;;;;;;;1.76;78.40;151819.13;5071566;28;20489;-77
2021/04/07 08:37:09;;;;;;;2.07;1.87;;;;;;;1.79;76.87;151826.84;5083291;28;20453;-77
2021/04/07 08:39:45;;;;;;;4.40;2.17;;;;;;;1.86;78.66;151844.84;5071965;28;20442;-77
2021/04/07 08:42:22;;;;;;;3.73;2.27;;;;;;;1.90;74.73;151855.16;5063198;28;20440;-76
2021/04/07 08:45:06;;;;;;;2.40;2.00;;;;;;;1.84;79.07;151839.72;5064015;28;20445;-77
2021/04/07 08:47:51;;;;;;;4.37;2.10;;;;;;;1.78;77.87;151824.25;5064977;28;20877;-77
2021/04/07 08:50:29;;;;;;;2.00;1.73;;;;;;;1.71;77.64;151806.28;5085717;28;20521;-77
2021/04/07 08:53:11;;;;;;;2.60;2.20;;;;;;;1.68;76.81;151798.56;5052155;28;20450;-77
2021/04/07 08:55:54;;;;;;;3.90;2.20;;;;;;;1.92;78.65;151860.28;5062323;28;20453;-77
2021/04/07 08:58:30;;;;;;;4.00;2.03;;;;;;;2.18;75.88;151925.81;5068283;28;20445;-78
2021/04/07 09:01:05;;;;;;;2.40;2.20;;;;;;;2.29;76.51;151955.41;5054278;28;20430;-78
2021/04/07 09:03:42;;;;;;;3.13;2.20;;;;;;;2.32;75.61;151961.84;5049542;28;20528;-78
2021/04/07 09:06:25;;;;;;;4.27;3.10;;;;;;;2.50;76.62;152006.84;5060030;28;20462;-78
2021/04/07 09:09:04;;;;;;;5.50;2.43;;;;;;;2.57;75.60;152024.88;5085683;28;20453;-78
2021/04/07 09:11:42;;;;;;;3.00;2.20;;;;;;;2.63;74.48;152040.25;5068485;28;20446;-78
2021/04/07 09:14:19;;;;;;;2.90;2.53;;;;;;;2.52;77.44;152011.97;5079611;28;20446;-78
2021/04/07 09:17:01;;;;;;;3.57;1.90;;;;;;;2.31;76.01;151960.53;5076578;28;20892;-78
2021/04/07 09:19:37;;;;;;;3.07;2.20;;;;;;;2.12;78.48;151911.69;5079728;28;20450;-78
2021/04/07 09:22:12;;;;;;;3.03;2.40;;;;;;;2.25;79.14;151943.84;5091054;28;20464;-78
2021/04/07 09:24:47;;;;;;;2.67;2.40;;;;;;;2.29;81.12;151954.13;5064168;28;20450;-78
2021/04/07 09:27:25;;;;;;;4.20;2.40;;;;;;;2.19;78.64;151928.41;5101820;28;20494;-78
2021/04/07 09:30:03;;;;;;;2.87;2.30;;;;;;;2.27;80.84;151948.97;5083001;28;20446;-78
2021/04/07 09:32:39;;;;;;;3.20;2.10;;;;;;;2.25;79.64;151945.09;5088809;28;20445;-78
2021/04/07 09:35:14;;;;;;;3.47;2.20;;;;;;;2.40;81.10;151982.41;5072634;28;20935;-78
2021/04/07 09:37:49;;;;;;;3.30;2.43;;;;;;;2.43;79.99;151991.44;5083908;28;20815;-77
2021/04/07 09:40:25;;;;;;;3.20;2.20;;;;;;;2.49;79.39;152004.28;5076310;28;20445;-79
2021/04/07 09:43:00;;;;;;;4.37;2.50;;;;;;;2.44;79.54;151992.69;5061164;28;20792;-78
2021/04/07 09:45:36;;;;;;;4.03;2.30;;;;;;;2.54;76.30;152017.16;5071169;28;20816;-78
2021/04/07 09:48:11;;;;;;;4.77;2.60;;;;;;;2.61;76.33;152035.13;5081068;28;20785;-78
2021/04/07 09:50:47;;;;;;;6.63;2.53;;;;;;;2.60;74.18;152032.53;5076611;28;20834;-79
2021/04/07 09:53:27;;;;;;;3.67;2.60;;;;;;;2.72;71.58;152063.44;5073647;28;20483;-79
2021/04/07 09:56:03;;;;;;;2.80;2.17;;;;;;;2.89;73.33;152107.16;5078304;28;20456;-79
2021/04/07 09:58:42;;;;;;;2.87;2.50;;;;;;;3.06;73.30;152150.91;5077848;28;20481;-79
2021/04/07 10:01:19;;;;;;;3.67;2.60;;;;;;;3.02;73.59;152141.91;5083244;28;20806;-80
2021/04/07 10:03:55;;;;;;;3.90;2.40;;;;;;;3.15;74.63;152172.81;5071020;28;20457;-79
2021/04/07 10:06:30;;;;;;;2.50;2.20;;;;;;;3.40;69.00;152238.41;5054033;28;20964;-79
2021/04/07 10:09:06;;;;;;;3.70;2.67;;;;;;;3.51;70.02;152266.75;5099156;28;20437;-79
2021/04/07 10:11:42;;;;;;;4.20;2.00;;;;;;;3.68;70.33;152310.50;5067821;28;20787;-79
2021/04/07 10:14:31;;;;;;;2.10;1.90;;;;;;;3.60;71.01;152288.66;5087230;28;20445;-79
2021/04/07 10:17:16;;;;;;;3.20;2.50;;;;;;;3.44;69.72;152248.69;5067576;28;20787;-79
2021/04/07 10:19:51;;;;;;;3.50;2.77;;;;;;;3.50;67.52;152262.84;5090032;28;20445;-79
2021/04/07 10:22:29;;;;;;;2.40;2.17;;;;;;;3.53;68.34;152270.59;5070018;28;20464;-79
2021/04/07 10:25:12;;;;;;;2.63;2.13;;;;;;;3.49;67.11;152261.59;5063824;28;20660;-79
2021/04/07 10:27:49;;;;;;;3.80;2.13;;;;;;;3.32;68.09;152216.53;5062182;28;20461;-79
2021/04/07 10:30:26;;;;;;;3.60;2.30;;;;;;;3.27;71.33;152204.97;5071055;28;20781;-79
2021/04/07 10:33:03;;;;;;;5.90;2.13;;;;;;;3.12;70.84;152165.06;5057071;28;20745;-80
2021/04/07 10:35:39;;;;;;;4.50;2.83;;;;;;;3.07;70.32;152153.50;5076269;28;20833;-80
2021/04/07 10:38:15;;;;;;;3.43;2.37;;;;;;;3.10;71.95;152161.19;5063492;28;20462;-80
2021/04/07 10:40:58;;;;;;;2.73;2.30;;;;;;;3.08;73.02;152156.06;5083526;28;20539;-79
2021/04/07 10:43:34;;;;;;;4.70;3.13;;;;;;;3.16;73.59;152176.66;5078314;28;20928;-80
2021/04/07 10:46:09;;;;;;;5.90;2.80;;;;;;;3.12;75.42;152166.38;5079066;28;20995;-79
2021/04/07 10:48:55;;;;;;;4.73;2.80;;;;;;;2.98;76.91;152130.31;5088721;28;20460;-80
2021/04/07 10:51:30;;;;;;;2.83;2.10;;;;;;;3.01;73.90;152138.06;5095763;28;20437;-79
2021/04/07 10:54:09;;;;;;;3.83;2.70;;;;;;;3.06;73.22;152152.22;5061570;28;20448;-80
2021/04/07 10:56:44;;;;;;;2.60;2.27;;;;;;;3.06;72.70;152150.91;5077634;28;20437;-80
2021/04/07 10:59:27;;;;;;;3.93;2.20;;;;;;;3.16;70.89;152175.34;5076177;28;20488;-79
2021/04/07 11:02:13;;;;;;;2.80;2.07;;;;;;;3.30;68.95;152212.69;5077866;28;20825;-80
2021/04/07 11:04:49;;;;;;;2.87;1.70;;;;;;;3.38;70.79;152233.28;5075398;28;20800;-80
2021/04/07 11:07:24;;;;;;;3.87;1.83;;;;;;;3.52;72.03;152269.28;5073078;28;20964;-80
2021/04/07 11:10:00;;;;;;;4.40;1.73;;;;;;;3.64;69.27;152298.91;5074729;28;20453;-79
2021/04/07 11:12:35;;;;;;;1.50;1.40;;;;;;;3.70;68.96;152314.38;5070572;28;20445;-80
2021/04/07 11:15:13;;;;;;;2.70;2.00;;;;;;;3.85;67.52;152351.69;5076038;28;20437;-80
2021/04/07 11:17:50;;;;;;;3.10;2.00;;;;;;;3.87;69.05;152358.13;5065827;28;20287;-80
2021/04/07 11:20:27;;;;;;;2.87;1.83;;;;;;;3.88;65.69;152360.72;5082827;28;20453;-80
2021/04/07 11:23:02;;;;;;;2.17;1.70;;;;;;;4.11;67.54;152418.66;5093156;28;20446;-79
2021/04/07 11:25:38;;;;;;;4.87;2.27;;;;;;;4.14;66.68;152426.38;5068390;28;20441;-79
2021/04/07 11:28:17;;;;;;;2.27;1.60;;;;;;;4.11;65.24;152419.94;5082845;28;20437;-80
2021/04/07 11:30:59;;;;;;;4.77;1.90;;;;;;;4.13;67.87;152423.84;5074703;28;20931;-80
2021/04/07 11:33:42;;;;;;;3.70;2.13;;;;;;;4.11;66.01;152418.66;5054257;28;20437;-79
2021/04/07 11:36:28;;;;;;;4.60;1.97;;;;;;;4.15;61.97;152428.97;5057448;28;20438;-79
2021/04/07 11:39:12;;;;;;;3.90;1.60;;;;;;;4.32;62.15;152472.75;5070964;28;20445;-79
2021/04/07 11:42:05;;;;;;;3.30;2.20;;;;;;;4.20;66.03;152441.84;5070751;28;20994;-80
2021/04/07 11:44:41;;;;;;;2.80;2.00;;;;;;;4.16;64.55;152431.53;5096324;28;20932;-80
2021/04/07 11:47:16;;;;;;;2.03;1.83;;;;;;;4.31;66.52;152470.19;5077861;28;21064;-80
2021/04/07 11:49:51;;;;;;;2.77;2.20;;;;;;;4.44;60.32;152503.69;5076560;28;20799;-80
2021/04/07 11:52:32;;;;;;;1.90;1.70;;;;;;;4.37;57.62;152485.63;5064542;28;20429;-79
2021/04/07 11:55:07;;;;;;;3.37;2.03;;;;;;;4.33;59.60;152475.34;5067875;28;20440;-80
2021/04/07 11:57:43;;;;;;;2.20;2.00;;;;;;;4.44;60.88;152502.38;5085673;28;20532;-79
2021/04/07 12:00:19;;;;;;;2.90;1.93;;;;;;;4.35;62.85;152480.47;5052538;28;20563;-79
2021/04/07 12:02:54;;;;;;;2.93;2.00;;;;;;;4.14;61.93;152427.69;5072649;28;21081;-80
2021/04/07 12:05:31;;;;;;;3.80;2.37;;;;;;;4.17;58.45;152434.13;5049189;28;20446;-80
2021/04/07 12:08:14;;;;;;;1.83;1.63;;;;;;;4.05;62.85;152403.22;5065816;28;20466;-80
2021/04/07 12:11:01;;;;;;;2.50;1.80;;;;;;;4.00;62.18;152390.31;5075729;28;20464;-80
2021/04/07 12:13:39;;;;;;;2.63;1.80;;;;;;;4.05;59.82;152403.22;5058728;28;20438;-79